James Reserve, California Weather observations

Data are for 10 minute period ending at time listed.
 Day   Time   Solar   Ave.   Ave.  Ave.  Vector  Max.   Baro.   Total    
  of    of     Rad.   Air    Rel.  Wind   Wind   Wind  Press.  Precip.   
Year   Day            Temp.  Hum.  Speed  Dir.   Gust                    
2014   (PST)  Kw/m2    F      %     mph   deg.    mph    mb.     in.     
-------------------------------------------------------------------------
 297   22:10   0.00   46.7    65    0.3   336     0.6   842.0    0.00 
 297   22:20   0.00   46.7    66    0.3    25     0.7   841.0    0.00 
 297   22:30   0.00   46.8    64    0.3   357     0.6   842.0    0.00 
 297   22:40   0.00   46.4    63    0.3   335     0.9   842.0    0.00 
 297   22:50   0.00   46.2    64    0.5    28     1.1   842.0    0.00 
 297   23:00   0.00   46.3    64    0.3    21     0.9   842.0    0.00 
 297   23:10   0.00   46.2    64    0.2    16     0.6   842.0    0.00 
 297   23:20   0.00   46.0    64    0.3    28     0.6   842.0    0.00 
 297   23:30   0.00   46.0    64    0.4    32     0.7   842.0    0.00 
 297   23:40   0.00   46.1    64    0.3    34     0.7   842.0    0.00 
 297   23:50   0.00   46.2    64    0.4    32     1.1   842.0    0.00 
 298    0:00   0.00   46.4    65    0.4    32     0.7   842.0    0.00 
 298    0:10   0.00   46.5    66    0.6    36     0.9   842.0    0.00 
 298    0:20   0.00   46.8    66    0.4    18     0.9   842.0    0.00 
 298    0:30   0.00   46.6    68    0.4    33     0.6   842.0    0.00 
 298    0:40   0.00   46.7    69    0.3    13     0.6   842.0    0.00 
 298    0:50   0.00   46.5    70    0.4    28     1.0   842.0    0.00 
 298    1:00   0.00   46.7    70    0.5    28     0.9   841.0    0.00 
 298    1:10   0.00   46.6    71    0.4    18     0.8   841.0    0.00 
 298    1:20   0.00   46.6    72    0.5    34     0.9   841.0    0.00 
 298    1:30   0.00   46.8    72    0.3     6     0.7   841.0    0.00 
 298    1:40   0.00   46.6    74    0.2    13     0.4   841.0    0.00 
 298    1:50   0.00   46.6    74    0.4    31     0.7   841.0    0.00 
 298    2:00   0.00   46.7    74    0.4    11     0.6   841.0    0.00 
 298    2:10   0.00   46.9    74    0.3    31     0.6   841.0    0.00 
 298    2:20   0.00   47.0    75    0.3     5     0.5   841.0    0.00 
 298    2:30   0.00   46.8    75    0.3    27     0.5   841.0    0.00 
 298    2:40   0.00   46.9    76    0.3    24     0.7   841.0    0.00 
 298    2:50   0.00   47.4    75    0.2    34     0.3   841.0    0.00 
 298    3:00   0.00   47.7    75    0.2    15     0.4   841.0    0.00 
 298    3:10   0.00   47.4    76    0.3    27     0.5   841.0    0.00 
 298    3:20   0.00   47.0    76    0.3    19     0.7   840.0    0.00 
 298    3:30   0.00   46.7    78    0.2     1     0.6   841.0    0.00 
 298    3:40   0.00   46.5    78    0.3    22     0.7   841.0    0.00 
 298    3:50   0.00   46.2    78    0.3    28     0.6   840.0    0.00 
 298    4:00   0.00   46.1    78    0.3    21     0.5   840.0    0.00 
 298    4:10   0.00   46.0    78    0.2    13     0.6   840.0    0.00 
 298    4:20   0.00   46.0    77    0.2    18     0.5   840.0    0.00 
 298    4:30   0.00   46.1    77    0.3    35     0.8   841.0    0.00 
 298    4:40   0.00   46.8    76    0.4    28     0.7   841.0    0.00 
 298    4:50   0.00   47.8    74    0.4    37     0.8   841.0    0.00 
 298    5:00   0.00   48.7    72    0.5    39     1.0   841.0    0.00 
 298    5:10   0.00   49.1    72    0.5    20     1.2   841.0    0.00 
 298    5:20   0.00   49.1    73    0.3    34     0.8   841.0    0.00 
 298    5:30   0.00   48.9    73    0.6    44     1.1   841.0    0.00 
 298    5:40   0.00   49.0    74    0.5    38     1.2   841.0    0.00 
 298    5:50   0.00   49.2    74    0.6    44     1.2   841.0    0.00 
 298    6:00   0.00   49.9    72    0.7    41     1.3   841.0    0.00 
 298    6:10   0.00   50.4    72    0.6    37     1.5   841.0    0.00 
 298    6:20   0.01   50.2    72    0.5    26     1.6   841.0    0.00 
 298    6:30   0.01   50.9    71    0.8    51     1.8   841.0    0.00 
 298    6:40   0.02   51.4    70    0.5    22     1.6   841.0    0.00 
 298    6:50   0.04   52.0    70    0.5    41     1.1   841.0    0.00 
 298    7:00   0.05   52.9    69    0.5    44     1.3   841.0    0.00 
 298    7:10   0.06   53.7    69    0.4    32     0.8   841.0    0.00 
 298    7:20   0.06   54.7    68    0.5    44     0.8   841.0    0.00 
 298    7:30   0.05   55.2    69    0.5    44     1.2   842.0    0.00 
 298    7:40   0.07   55.9    68    0.4     2     1.0   842.0    0.00 
 298    7:50   0.08   57.1    67    0.4    47     0.9   842.0    0.00 
 298    8:00   0.10   58.4    65    0.3   141     1.2   842.0    0.00 
 298    8:10   0.09   59.5    62    0.5    56     1.3   842.0    0.00 
 298    8:20   0.10   59.9    60    0.5    94     1.5   842.0    0.00 
 298    8:30   0.09   60.8    56    0.6   153     1.9   842.0    0.00 
 298    8:40   0.11   61.0    56    0.4   165     1.1   842.0    0.00 
 298    8:50   0.13   61.3    55    0.6    99     1.1   842.0    0.00 
 298    9:00   0.14   61.8    55    0.4   218     1.2   842.0    0.00 
 298    9:10   0.15   62.4    53    0.6   134     1.5   842.0    0.00 
 298    9:20   0.15   62.5    52    0.8   116     2.5   842.0    0.00 
 298    9:30   0.18   63.0    52    0.6   137     1.4   842.0    0.00 
 298    9:40   0.16   62.7    52    0.7   108     1.7   842.0    0.00 
 298    9:50   0.19   63.1    51    0.6    78     2.3   842.0    0.00 
 298   10:00   0.23   63.4    50    0.9   112     3.1   842.0    0.00 
 298   10:10   0.26   63.4    50    0.7   108     1.6   842.0    0.00 
 298   10:20   0.24   63.7    49    0.7   123     1.5   842.0    0.00 
 298   10:30   0.25   63.6    49    0.9   145     2.4   842.0    0.00 
 298   10:40   0.19   63.5    49    0.8   200     1.8   842.0    0.00 
 298   10:50   0.18   63.8    49    0.8   206     1.8   842.0    0.00 
 298   11:00   0.32   63.6    49    0.7   153     1.5   842.0    0.00 
 298   11:10   0.40   64.0    48    0.6   105     1.5   842.0    0.00 
 298   11:20   0.22   64.2    48    0.8   178     3.3   842.0    0.00 
 298   11:30   0.18   63.6    49    0.6   190     1.6   842.0    0.00 
 298   11:40   0.15   63.4    49    0.7   177     1.6   841.0    0.00 
 298   11:50   0.14   63.5    50    0.6   114     1.2   841.0    0.00 
 298   12:00   0.20   63.7    49    0.6   166     1.6   841.0    0.00 
 298   12:10   0.76   65.1    47    0.8   132     2.0   841.0    0.00 
 298   12:20   0.88   67.9    42    1.0   238     2.7   841.0    0.00 
 298   12:30   0.72   67.0    43    1.0   111     2.4   841.0    0.00 
 298   12:40   0.48   66.4    44    1.0   155     2.2   841.0    0.00 
 298   12:50   0.68   66.7    44    0.8    88     2.2   841.0    0.00 
 298   13:00   0.75   67.4    42    1.2   101     2.7   841.0    0.00 
 298   13:10   0.75   67.2    42    1.2   108     2.4   841.0    0.00 
 298   13:20   0.68   67.0    42    1.0   118     2.1   841.0    0.00 
 298   13:30   0.43   67.0    42    1.1   134     2.7   840.0    0.00 
 298   13:40   0.49   67.9    41    0.9   126     2.5   840.0    0.00 
 298   13:50   0.57   67.5    42    0.9   136     2.9   840.0    0.00 
 298   14:00   0.18   65.9    44    1.1   136     2.7   841.0    0.00 
 298   14:10   0.11   64.1    46    0.9   113     2.9   840.0    0.00 
 298   14:20   0.12   64.1    46    0.9    82     2.1   841.0    0.00 
 298   14:30   0.12   64.1    45    0.9    90     1.7   840.0    0.00 
 298   14:40   0.11   64.8    44    0.8   110     2.0   840.0    0.00 
 298   14:50   0.06   64.6    44    0.8    75     2.1   840.0    0.00 
 298   15:00   0.08   63.6    45    0.8   157     1.9   840.0    0.00 
 298   15:10   0.05   63.4    45    0.6    84     1.5   840.0    0.00 
 298   15:20   0.04   63.2    46    0.6   109     1.5   840.0    0.00 
 298   15:30   0.04   62.9    46    0.5   124     2.1   840.0    0.00 
 298   15:40   0.07   62.7    46    0.5    75     1.2   840.0    0.00 
 298   15:50   0.03   62.4    46    0.6   112     1.8   840.0    0.00 
 298   16:00   0.02   62.2    46    0.6    58     1.5   840.0    0.00 
 298   16:10   0.03   61.8    47    0.6    60     2.5   840.0    0.00 
 298   16:20   0.02   61.1    48    0.5   107     1.3   840.0    0.00 
 298   16:30   0.02   60.3    50    0.4    31     1.4   840.0    0.00 
 298   16:40   0.01   59.9    50    0.5    43     1.4   840.0    0.00 
 298   16:50   0.00   59.1    52    0.4    22     1.0   840.0    0.00 
 298   17:00   0.00   58.2    54    0.4    33     0.8   840.0    0.00 
 298   17:10   0.00   57.4    56    0.3    44     0.7   840.0    0.00 
 298   17:20   0.00   56.1    57    0.2   345     0.7   840.0    0.00 
 298   17:30   0.00   54.8    60    0.3   342     0.6   840.0    0.00 
 298   17:40   0.00   53.9    61    0.3    33     0.7   840.0    0.00 
 298   17:50   0.00   53.0    62    0.3     4     0.5   840.0    0.00 
 298   18:00   0.00   51.8    64    0.2   322     0.4   840.0    0.00 
 298   18:10   0.00   51.0    66    0.4    14     0.8   840.0    0.00 
 298   18:20   0.00   50.4    67    0.2   340     0.4   840.0    0.00 
 298   18:30   0.00   49.5    68    0.4     5     0.8   840.0    0.00 
 298   18:40   0.00   49.1    69    0.3   357     0.5   840.0    0.00 
 298   18:50   0.00   48.7    70    0.3    12     0.7   840.0    0.00 
 298   19:00   0.00   48.1    71    0.2   334     0.5   840.0    0.00 
 298   19:10   0.00   47.5    72    0.3    24     0.6   840.0    0.00 
 298   19:20   0.00   47.4    74    0.4    15     0.6   840.0    0.00 
 298   19:30   0.00   47.2    74    0.4    30     1.0   840.0    0.00 
 298   19:40   0.00   46.9    75    0.3     3     0.6   840.0    0.00 
 298   19:50   0.00   46.6    76    0.2   350     0.7   840.0    0.00 
 298   20:00   0.00   46.3    77    0.3   350     0.8   840.0    0.00 
 298   20:10   0.00   46.0    78    0.4    19     0.7   840.0    0.00 
 298   20:20   0.00   45.9    78    0.4   316     0.8   840.0    0.00 
 298   20:30   0.00   45.6    79    0.4    31     0.8   840.0    0.00 
 298   20:40   0.00   45.7    80    0.2   360     0.4   840.0    0.00 
 298   20:50   0.00   45.3    80    0.2     9     0.7   840.0    0.00 
 298   21:00   0.00   45.2    81    0.4    28     0.7   840.0    0.00 
 298   21:10   0.00   45.0    81    0.2   354     0.4   840.0    0.00 
 298   21:20   0.00   44.7    82    0.2   352     0.4   840.0    0.00 
 298   21:30   0.00   44.6    83    0.2     9     0.5   840.0    0.00 
 298   21:40   0.00   44.3    84    0.3    20     0.6   840.0    0.00 
 298   21:50   0.00   44.2    84    0.2     3     0.7   840.0    0.00 
 298   22:00   0.00   43.9    84    0.2   348     0.5   840.0    0.00 

Return to James Reserve graphs page.


Western Regional Climate Center,wrcc@dri.edu